CUN weather

CancĂșn International Airport
CancĂșn, Quintana Roo, Mexico

Public forecast

Using degrees Celsius for public forecast. Weather courtesy of forecast.io.

METAR (pilot weather report)

Retrieved 2019/03/25 19:48 UTC (21 minutes ago):

MMUN 251948Z 10008KT 7SM SCT015 29/22 A3000 RMK 8/100

TAF (pilot weather forecast)

Forecast is more than 12 hours old.

Retrieved 2019/03/24 18:09 UTC (1 day ago):

TAF MMUN 241704Z 2418/2524 06010KT P6SM BKN015 TX28/2418Z TN16/2510Z FM250300 08008KT 6SM HZ BKN015 BKN025 TEMPO 2505/2509 6SM -RA FM251500 08010KT P6SM BKN015 BKN025 TEMPO 2515/2519 5SM RA FM251900 08010KT P6SM SCT015 BKN025